createdAt,value
2019-06-15T00:00:16.688Z,4.58
2019-06-15T00:01:21.713Z,3.22
2019-06-15T00:02:26.098Z,2.87
2019-06-15T00:03:31.142Z,3.20
2019-06-15T00:04:35.626Z,3.12
2019-06-15T00:05:40.700Z,5.47
2019-06-15T00:06:45.136Z,5.80
2019-06-15T00:07:50.175Z,4.78
2019-06-15T00:08:54.652Z,6.97
2019-06-15T00:09:59.797Z,6.22
2019-06-15T00:11:05.310Z,7.55
2019-06-15T00:12:10.337Z,7.90
2019-06-15T00:13:14.713Z,7.22
2019-06-15T00:14:19.771Z,8.18
2019-06-15T00:15:24.237Z,9.00
2019-06-15T00:16:29.256Z,10.82
2019-06-15T00:17:33.701Z,10.60
2019-06-15T00:18:38.634Z,12.28
2019-06-15T00:19:43.093Z,12.18
2019-06-15T00:20:48.193Z,13.08
2019-06-15T00:21:52.695Z,13.65
2019-06-15T00:22:57.789Z,14.03
2019-06-15T00:24:02.118Z,14.38
2019-06-15T00:25:07.430Z,15.48
2019-06-15T00:26:12.005Z,14.87
2019-06-15T00:27:17.078Z,14.90
2019-06-15T00:28:21.469Z,16.35
2019-06-15T00:29:26.621Z,16.17
2019-06-15T00:30:31.036Z,16.70
2019-06-15T00:31:36.013Z,17.00
2019-06-15T00:32:40.421Z,14.28
2019-06-15T00:33:45.410Z,18.23
2019-06-15T00:34:49.942Z,18.92
2019-06-15T00:35:55.035Z,19.27
2019-06-15T00:36:59.459Z,20.85
2019-06-15T00:38:04.554Z,19.85
2019-06-15T00:39:09.292Z,19.20
2019-06-15T00:40:14.520Z,20.17
2019-06-15T00:41:18.893Z,19.02
2019-06-15T00:42:23.932Z,19.07
2019-06-15T00:43:28.332Z,19.35
2019-06-15T00:44:33.331Z,18.45
2019-06-15T00:45:37.885Z,19.17
2019-06-15T00:46:44.104Z,20.17
2019-06-15T00:47:48.473Z,19.02
2019-06-15T00:48:53.477Z,16.37
2019-06-15T00:49:57.837Z,14.40
2019-06-15T00:51:02.871Z,15.93
2019-06-15T00:52:07.308Z,11.85
2019-06-15T00:53:12.385Z,8.90
2019-06-15T00:54:16.693Z,8.88
2019-06-15T00:55:21.822Z,6.80
2019-06-15T00:56:26.289Z,6.30
2019-06-15T00:57:31.238Z,7.65
2019-06-15T00:58:35.594Z,6.50
2019-06-15T00:59:40.542Z,6.20
2019-06-15T01:00:45.297Z,5.90
2019-06-15T01:01:50.276Z,5.85
2019-06-15T01:02:54.625Z,7.75
2019-06-15T01:03:59.570Z,5.70
2019-06-15T01:05:04.036Z,6.65
2019-06-15T01:06:10.617Z,11.80
2019-06-15T01:07:15.051Z,11.90
2019-06-15T01:08:19.999Z,10.50
2019-06-15T01:09:24.479Z,8.83
2019-06-15T01:10:29.477Z,9.55
2019-06-15T01:11:33.960Z,12.15
2019-06-15T01:12:38.881Z,8.70
2019-06-15T01:13:43.391Z,12.95
2019-06-15T01:14:48.490Z,14.25
2019-06-15T01:15:53.156Z,15.08
2019-06-15T01:16:58.118Z,15.83
2019-06-15T01:18:02.461Z,15.13
2019-06-15T01:19:07.650Z,13.43
2019-06-15T01:20:13.946Z,15.13
2019-06-15T01:21:19.072Z,14.63
2019-06-15T01:22:23.489Z,14.78
2019-06-15T01:23:28.409Z,10.50
2019-06-15T01:24:32.917Z,11.68
2019-06-15T01:25:37.856Z,14.35
2019-06-15T01:26:45.248Z,14.40
2019-06-15T01:27:50.196Z,15.72
2019-06-15T01:28:54.609Z,10.05
2019-06-15T01:29:59.715Z,13.98
2019-06-15T01:31:04.214Z,10.28
2019-06-15T01:32:09.716Z,6.67
2019-06-15T01:33:14.350Z,5.87
2019-06-15T01:34:19.372Z,5.42
2019-06-15T01:35:23.729Z,5.83
2019-06-15T01:36:28.686Z,11.43
2019-06-15T01:37:33.124Z,13.78
2019-06-15T01:38:38.066Z,14.50
2019-06-15T01:39:42.433Z,13.83
2019-06-15T01:40:47.391Z,14.95
2019-06-15T01:41:51.999Z,14.95
2019-06-15T01:42:57.153Z,15.60
2019-06-15T01:44:01.525Z,16.52
2019-06-15T01:45:07.856Z,15.88
2019-06-15T01:46:12.327Z,13.60
2019-06-15T01:47:17.314Z,16.12
2019-06-15T01:48:21.718Z,18.62
2019-06-15T01:49:26.629Z,17.25
2019-06-15T01:50:30.987Z,20.17
2019-06-15T01:51:35.984Z,21.48
2019-06-15T01:52:40.513Z,20.50
2019-06-15T01:53:45.455Z,22.20
2019-06-15T01:54:49.831Z,20.68
2019-06-15T01:55:55.042Z,19.17
2019-06-15T01:56:59.535Z,11.93
2019-06-15T01:58:04.488Z,18.73
2019-06-15T01:59:09.063Z,13.22
2019-06-15T02:00:22.328Z,11.48
2019-06-15T02:01:26.714Z,9.95
2019-06-15T02:02:31.664Z,8.93
2019-06-15T02:03:36.064Z,8.00
2019-06-15T02:04:40.975Z,10.00
2019-06-15T02:05:45.299Z,7.28
2019-06-15T02:06:50.257Z,13.95
2019-06-15T02:07:54.741Z,18.32
2019-06-15T02:08:59.709Z,17.12
2019-06-15T02:10:04.546Z,16.87
2019-06-15T02:11:09.709Z,17.67
2019-06-15T02:12:14.400Z,18.00
2019-06-15T02:13:19.379Z,18.73
2019-06-15T02:14:23.780Z,18.73
2019-06-15T02:15:28.706Z,20.88
2019-06-15T02:16:33.381Z,20.72
2019-06-15T02:17:38.320Z,18.90
2019-06-15T02:18:42.674Z,10.50
2019-06-15T02:19:47.564Z,15.63
2019-06-15T02:20:51.920Z,9.10
2019-06-15T02:21:57.245Z,9.25
2019-06-15T02:23:02.351Z,9.13
2019-06-15T02:24:07.315Z,8.85
2019-06-15T02:25:12.136Z,8.00
2019-06-15T02:26:17.465Z,7.58
2019-06-15T02:27:21.948Z,7.70
2019-06-15T02:28:26.936Z,14.25
2019-06-15T02:29:31.353Z,14.05
2019-06-15T02:30:36.997Z,13.58
2019-06-15T02:31:41.334Z,15.10
2019-06-15T02:32:46.259Z,15.38
2019-06-15T02:33:50.702Z,15.63
2019-06-15T02:34:55.718Z,16.40
2019-06-15T02:36:00.117Z,17.98
2019-06-15T02:37:05.120Z,19.40
2019-06-15T02:38:10.796Z,19.85
2019-06-15T02:39:15.946Z,21.75
2019-06-15T02:40:20.481Z,23.60
2019-06-15T02:41:25.423Z,20.02
2019-06-15T02:42:29.838Z,10.95
2019-06-15T02:43:34.757Z,24.20
2019-06-15T02:44:39.207Z,23.47
2019-06-15T02:45:44.177Z,22.75
2019-06-15T02:46:48.600Z,22.17
2019-06-15T02:47:53.560Z,19.98
2019-06-15T02:48:57.932Z,20.32
2019-06-15T02:50:03.004Z,21.60
2019-06-15T02:51:07.462Z,23.25
2019-06-15T02:52:12.782Z,21.87
2019-06-15T02:53:17.356Z,23.15
2019-06-15T02:54:22.360Z,22.70
2019-06-15T02:55:26.705Z,22.95
2019-06-15T02:56:31.689Z,21.93
2019-06-15T02:57:36.534Z,22.82
2019-06-15T02:58:41.479Z,12.50
2019-06-15T02:59:45.897Z,15.55
2019-06-15T03:01:06.697Z,11.95
2019-06-15T03:02:11.186Z,18.32
2019-06-15T03:03:16.640Z,9.70
2019-06-15T03:04:21.041Z,8.30
2019-06-15T03:05:26.148Z,8.78
2019-06-15T03:06:30.510Z,10.82
2019-06-15T03:07:35.607Z,8.48
2019-06-15T03:08:40.144Z,7.83
2019-06-15T03:09:45.262Z,7.58
2019-06-15T03:10:49.729Z,7.05
2019-06-15T03:11:54.790Z,6.97
2019-06-15T03:12:59.369Z,6.28
2019-06-15T03:14:06.652Z,5.65
2019-06-15T03:15:11.641Z,6.42
2019-06-15T03:16:16.809Z,6.37
2019-06-15T03:17:21.279Z,6.00
2019-06-15T03:18:26.260Z,5.72
2019-06-15T03:19:30.673Z,6.15
2019-06-15T03:20:35.667Z,7.05
2019-06-15T03:21:40.088Z,6.42
2019-06-15T03:22:45.140Z,6.30
2019-06-15T03:23:49.510Z,5.65
2019-06-15T03:24:54.576Z,6.10
2019-06-15T03:26:05.573Z,6.40
2019-06-15T03:27:06.064Z,6.75
2019-06-15T03:28:10.885Z,5.50
2019-06-15T03:29:16.137Z,6.72
2019-06-15T03:30:22.155Z,7.37
2019-06-15T03:31:27.442Z,8.00
2019-06-15T03:32:31.762Z,12.35
2019-06-15T03:33:37.149Z,7.15
2019-06-15T03:34:41.508Z,6.65
2019-06-15T03:35:46.521Z,11.40
2019-06-15T03:36:51.021Z,6.92
2019-06-15T03:37:56.006Z,7.62
2019-06-15T03:39:00.364Z,6.08
2019-06-15T03:40:05.785Z,6.17
2019-06-15T03:41:10.463Z,5.87
2019-06-15T03:42:16.048Z,5.72
2019-06-15T03:43:20.591Z,6.17
2019-06-15T03:44:25.626Z,5.40
2019-06-15T03:45:30.086Z,6.10
2019-06-15T03:46:35.084Z,6.40
2019-06-15T03:47:39.499Z,6.20
2019-06-15T03:48:44.582Z,7.40
2019-06-15T03:49:50.053Z,6.72
2019-06-15T03:50:55.022Z,5.72
2019-06-15T03:51:59.615Z,6.60
2019-06-15T03:53:05.099Z,7.55
2019-06-15T03:54:09.656Z,6.80
2019-06-15T03:55:15.127Z,10.40
2019-06-15T03:56:21.990Z,7.30
2019-06-15T03:57:26.157Z,8.03
2019-06-15T03:58:30.521Z,10.00
2019-06-15T03:59:36.576Z,7.45
2019-06-15T04:00:46.313Z,6.95
2019-06-15T04:01:51.889Z,6.08
2019-06-15T04:02:56.388Z,8.63
2019-06-15T04:04:01.358Z,9.65
2019-06-15T04:05:07.868Z,6.40
2019-06-15T04:06:13.186Z,10.18
2019-06-15T04:07:17.625Z,7.15
2019-06-15T04:08:22.653Z,7.83
2019-06-15T04:09:27.371Z,8.48
2019-06-15T04:10:32.293Z,7.25
2019-06-15T04:11:37.218Z,5.72
2019-06-15T04:12:42.183Z,7.00
2019-06-15T04:13:46.531Z,6.65
2019-06-15T04:14:51.544Z,5.58
2019-06-15T04:15:55.873Z,6.60
2019-06-15T04:17:01.006Z,8.23
2019-06-15T04:18:05.421Z,6.75
2019-06-15T04:19:10.498Z,6.45
2019-06-15T04:20:15.050Z,5.20
2019-06-15T04:21:19.985Z,5.92
2019-06-15T04:22:24.464Z,6.28
2019-06-15T04:23:29.508Z,5.28
2019-06-15T04:24:33.843Z,6.30
2019-06-15T04:25:39.049Z,6.65
2019-06-15T04:26:43.413Z,6.03
2019-06-15T04:27:48.376Z,5.95
2019-06-15T04:28:52.742Z,7.22
2019-06-15T04:29:58.340Z,6.22
2019-06-15T04:31:02.702Z,7.67
2019-06-15T04:32:07.646Z,5.42
2019-06-15T04:33:12.892Z,6.83
2019-06-15T04:34:18.052Z,5.30
2019-06-15T04:35:22.412Z,5.33
2019-06-15T04:36:27.474Z,5.37
2019-06-15T04:37:31.905Z,5.00
2019-06-15T04:38:36.870Z,6.62
2019-06-15T04:39:41.349Z,5.50
2019-06-15T04:40:46.459Z,4.47
2019-06-15T04:41:51.024Z,5.83
2019-06-15T04:42:56.303Z,5.92
2019-06-15T04:44:00.877Z,4.55
2019-06-15T04:45:06.624Z,7.40
2019-06-15T04:46:11.100Z,10.78
2019-06-15T04:47:16.088Z,8.63
2019-06-15T04:48:20.532Z,6.17
2019-06-15T04:49:25.531Z,10.88
2019-06-15T04:50:29.900Z,8.60
2019-06-15T04:51:34.943Z,10.20
2019-06-15T04:52:39.519Z,10.60
2019-06-15T04:53:44.492Z,9.10
2019-06-15T04:54:48.828Z,5.67
2019-06-15T04:55:53.832Z,4.72
2019-06-15T04:56:58.228Z,4.47
2019-06-15T04:58:03.278Z,5.08
2019-06-15T04:59:07.869Z,6.12
2019-06-15T05:00:14.317Z,5.12
2019-06-15T05:01:18.749Z,4.87
2019-06-15T05:02:27.051Z,5.08
2019-06-15T05:03:29.773Z,4.37
2019-06-15T05:04:34.745Z,5.47
2019-06-15T05:05:41.902Z,5.28
2019-06-15T05:06:46.881Z,5.15
2019-06-15T05:07:51.201Z,5.03
2019-06-15T05:08:56.479Z,4.78
2019-06-15T05:10:01.427Z,4.72
2019-06-15T05:11:06.613Z,7.85
2019-06-15T05:12:13.578Z,4.42
2019-06-15T05:13:18.668Z,5.83
2019-06-15T05:14:23.124Z,6.03
2019-06-15T05:15:28.062Z,4.97
2019-06-15T05:16:32.434Z,5.65
2019-06-15T05:17:39.566Z,4.83
2019-06-15T05:18:43.892Z,4.50
2019-06-15T05:19:49.276Z,5.37
2019-06-15T05:20:53.691Z,4.95
2019-06-15T05:21:58.677Z,5.60
2019-06-15T05:23:03.211Z,5.67
2019-06-15T05:24:08.757Z,5.00
2019-06-15T05:25:14.460Z,5.25
2019-06-15T05:26:19.399Z,4.75
2019-06-15T05:27:23.878Z,5.70
2019-06-15T05:28:28.855Z,5.47
2019-06-15T05:29:33.229Z,4.92
2019-06-15T05:30:38.347Z,5.92
2019-06-15T05:31:42.840Z,6.08
2019-06-15T05:32:47.784Z,6.08
2019-06-15T05:33:52.193Z,6.37
2019-06-15T05:34:57.214Z,6.37
2019-06-15T05:36:01.701Z,6.17
2019-06-15T05:37:06.628Z,10.23
2019-06-15T05:38:11.956Z,10.75
2019-06-15T05:39:17.048Z,10.98
2019-06-15T05:40:23.082Z,8.73
2019-06-15T05:41:28.134Z,7.08
2019-06-15T05:42:32.549Z,10.82
2019-06-15T05:43:37.796Z,7.25
2019-06-15T05:44:42.224Z,7.33
2019-06-15T05:45:47.404Z,11.18
2019-06-15T05:46:51.857Z,10.08
2019-06-15T05:47:56.951Z,7.08
2019-06-15T05:49:01.404Z,6.08
2019-06-15T05:50:07.374Z,6.05
2019-06-15T05:51:12.227Z,5.75
2019-06-15T05:52:17.286Z,6.00
2019-06-15T05:53:21.661Z,5.35
2019-06-15T05:54:27.709Z,8.00
2019-06-15T05:55:32.277Z,9.00
2019-06-15T05:56:37.327Z,6.72
2019-06-15T05:57:41.786Z,8.55
2019-06-15T05:58:46.822Z,8.43
2019-06-15T05:59:51.892Z,7.95
2019-06-15T06:00:56.910Z,7.87
2019-06-15T06:02:01.262Z,9.73
2019-06-15T06:03:06.257Z,12.53
2019-06-15T06:04:11.218Z,10.93
2019-06-15T06:05:16.692Z,11.05
2019-06-15T06:06:21.333Z,7.28
2019-06-15T06:07:26.413Z,7.50
2019-06-15T06:08:30.898Z,7.83
2019-06-15T06:09:35.892Z,10.60
2019-06-15T06:10:40.382Z,10.63
2019-06-15T06:11:45.409Z,7.15
2019-06-15T06:12:49.813Z,6.62
2019-06-15T06:13:54.755Z,6.35
2019-06-15T06:14:59.965Z,7.58
2019-06-15T06:16:05.386Z,7.17
2019-06-15T06:17:10.352Z,8.15
2019-06-15T06:18:15.581Z,9.48
2019-06-15T06:19:19.961Z,6.87
2019-06-15T06:20:25.099Z,8.88
2019-06-15T06:21:29.794Z,8.28
2019-06-15T06:22:34.796Z,6.83
2019-06-15T06:23:39.523Z,6.72
2019-06-15T06:24:44.653Z,6.70
2019-06-15T06:25:49.041Z,7.12
2019-06-15T06:26:54.084Z,7.40
2019-06-15T06:27:58.512Z,6.87
2019-06-15T06:29:03.665Z,8.03
2019-06-15T06:30:08.369Z,7.40
2019-06-15T06:31:13.700Z,9.88
2019-06-15T06:32:18.373Z,11.33
2019-06-15T06:33:23.398Z,7.72
2019-06-15T06:34:27.973Z,9.48
2019-06-15T06:35:33.016Z,9.93
2019-06-15T06:36:37.827Z,8.30
2019-06-15T06:37:43.063Z,8.80
2019-06-15T06:38:47.686Z,8.83
2019-06-15T06:39:52.769Z,11.80
2019-06-15T06:40:59.820Z,7.50
2019-06-15T06:42:05.432Z,8.33
2019-06-15T06:43:10.281Z,10.25
2019-06-15T06:44:15.779Z,10.10
2019-06-15T06:45:20.709Z,9.83
2019-06-15T06:46:26.126Z,9.13
2019-06-15T06:47:30.836Z,9.63
2019-06-15T06:48:36.279Z,8.90
2019-06-15T06:49:40.809Z,9.30
2019-06-15T06:50:46.959Z,8.30
2019-06-15T06:51:51.456Z,8.28
2019-06-15T06:52:57.151Z,8.38
2019-06-15T06:54:01.719Z,7.70
2019-06-15T06:55:07.604Z,9.05
2019-06-15T06:56:14.795Z,8.80
2019-06-15T06:57:20.119Z,8.18
2019-06-15T06:58:24.771Z,7.85
2019-06-15T06:59:30.843Z,7.85
2019-06-15T07:00:35.469Z,7.20
2019-06-15T07:01:40.906Z,7.55
2019-06-15T07:02:45.566Z,7.20
2019-06-15T07:03:50.633Z,6.85
2019-06-15T07:04:55.067Z,7.25
2019-06-15T07:06:00.298Z,7.20
2019-06-15T07:07:04.808Z,6.58
2019-06-15T07:08:11.110Z,7.25
2019-06-15T07:09:15.876Z,6.42
2019-06-15T07:10:21.073Z,7.15
2019-06-15T07:11:25.957Z,6.70
2019-06-15T07:12:30.932Z,7.12
2019-06-15T07:13:35.951Z,6.53
2019-06-15T07:14:41.064Z,5.80
2019-06-15T07:15:45.470Z,5.42
2019-06-15T07:16:50.614Z,5.35
2019-06-15T07:17:56.071Z,5.58
2019-06-15T07:19:01.488Z,6.08
2019-06-15T07:20:06.438Z,4.65
2019-06-15T07:21:12.795Z,5.28
2019-06-15T07:22:19.703Z,5.22
2019-06-15T07:23:24.859Z,4.90
2019-06-15T07:24:29.290Z,4.72
2019-06-15T07:25:34.423Z,4.83
2019-06-15T07:26:38.834Z,4.62
2019-06-15T07:27:43.933Z,4.90
2019-06-15T07:28:48.452Z,4.30
2019-06-15T07:29:53.521Z,5.45
2019-06-15T07:30:58.043Z,4.87
2019-06-15T07:32:03.402Z,5.30
2019-06-15T07:33:07.928Z,5.05
2019-06-15T07:34:13.428Z,4.70
2019-06-15T07:35:17.885Z,5.62
2019-06-15T07:36:22.950Z,4.78
2019-06-15T07:37:27.370Z,4.90
2019-06-15T07:38:32.386Z,4.80
2019-06-15T07:39:36.821Z,5.25
2019-06-15T07:40:42.178Z,4.78
2019-06-15T07:41:46.713Z,5.25
2019-06-15T07:42:51.689Z,4.97
2019-06-15T07:43:56.364Z,5.42
2019-06-15T07:45:01.473Z,4.85
2019-06-15T07:46:05.992Z,4.83
2019-06-15T07:47:11.345Z,5.33
2019-06-15T07:48:15.995Z,5.17
2019-06-15T07:49:21.077Z,4.90
2019-06-15T07:50:25.521Z,4.65
2019-06-15T07:51:30.864Z,5.62
2019-06-15T07:52:35.544Z,5.35
2019-06-15T07:53:40.478Z,4.28
2019-06-15T07:54:45.004Z,6.55
2019-06-15T07:55:50.111Z,8.28
2019-06-15T07:56:57.995Z,7.35
2019-06-15T07:58:03.452Z,8.50
2019-06-15T07:59:08.312Z,9.65
2019-06-15T08:00:20.234Z,9.85
2019-06-15T08:01:24.689Z,11.50
2019-06-15T08:02:30.789Z,11.57
2019-06-15T08:03:35.696Z,14.53
2019-06-15T08:04:40.872Z,14.23
2019-06-15T08:05:45.282Z,16.62
2019-06-15T08:06:50.283Z,16.50
2019-06-15T08:07:54.854Z,17.48
2019-06-15T08:08:59.983Z,18.35
2019-06-15T08:10:05.042Z,19.55
2019-06-15T08:11:12.175Z,19.52
2019-06-15T08:12:16.816Z,20.15
2019-06-15T08:13:21.924Z,19.42
2019-06-15T08:14:26.681Z,19.57
2019-06-15T08:15:32.602Z,21.82
2019-06-15T08:16:37.419Z,20.52
2019-06-15T08:17:45.553Z,22.67
2019-06-15T08:18:49.726Z,19.87
2019-06-15T08:20:00.866Z,21.45
2019-06-15T08:21:06.833Z,20.43
2019-06-15T08:22:19.494Z,22.15
2019-06-15T08:23:28.081Z,23.95
2019-06-15T08:24:33.151Z,24.12
2019-06-15T08:25:39.370Z,24.80
2019-06-15T08:26:44.640Z,26.23
2019-06-15T08:27:53.222Z,22.62
2019-06-15T08:30:02.793Z,25.62
2019-06-15T08:31:08.197Z,23.77
2019-06-15T08:32:16.971Z,24.32
2019-06-15T08:33:22.204Z,26.00
2019-06-15T08:34:26.997Z,24.20
2019-06-15T08:35:32.135Z,22.05
2019-06-15T08:36:37.482Z,23.77
2019-06-15T08:37:43.281Z,20.95
2019-06-15T08:38:48.447Z,22.15
2019-06-15T08:39:53.610Z,19.75
2019-06-15T08:41:00.038Z,20.30
2019-06-15T08:42:06.103Z,20.82
2019-06-15T08:43:16.242Z,19.75
2019-06-15T08:44:22.014Z,19.30
2019-06-15T08:45:27.593Z,19.12
2019-06-15T08:46:34.719Z,17.48
2019-06-15T08:47:40.028Z,18.87
2019-06-15T08:48:45.105Z,19.82
2019-06-15T08:49:49.600Z,17.85
2019-06-15T08:50:55.265Z,19.23
2019-06-15T08:51:59.851Z,18.12
2019-06-15T08:53:05.402Z,18.23
2019-06-15T08:54:13.758Z,19.05
2019-06-15T08:55:19.316Z,19.10
2019-06-15T08:56:28.908Z,17.25
2019-06-15T08:57:36.070Z,17.40
2019-06-15T08:58:55.182Z,17.65
2019-06-15T08:59:54.224Z,15.38
2019-06-15T09:00:59.308Z,16.27
2019-06-15T09:02:07.556Z,16.57
2019-06-15T09:03:18.190Z,17.82
2019-06-15T09:04:24.442Z,16.23
2019-06-15T09:05:29.494Z,16.15
2019-06-15T09:06:35.735Z,15.90
2019-06-15T09:07:40.825Z,16.27
2019-06-15T09:08:46.814Z,17.77
2019-06-15T09:09:52.017Z,16.87
2019-06-15T09:10:58.638Z,19.02
2019-06-15T09:12:05.560Z,17.00
2019-06-15T09:13:12.549Z,18.48
2019-06-15T09:14:17.587Z,18.02
2019-06-15T09:15:37.634Z,18.37
2019-06-15T09:16:42.705Z,17.67
2019-06-15T09:17:49.073Z,16.17
2019-06-15T09:18:56.695Z,17.30
2019-06-15T09:20:02.100Z,17.52
2019-06-15T09:21:08.098Z,17.17
2019-06-15T09:22:19.792Z,16.67
2019-06-15T09:23:24.954Z,15.88
2019-06-15T09:24:31.604Z,16.95
2019-06-15T09:25:37.296Z,15.78
2019-06-15T09:26:46.358Z,14.80
2019-06-15T09:27:50.989Z,15.40
2019-06-15T09:29:10.162Z,14.65
2019-06-15T09:30:06.749Z,14.73
2019-06-15T09:31:19.403Z,14.45
2019-06-15T09:32:25.451Z,13.03
2019-06-15T09:33:33.413Z,11.30
2019-06-15T09:34:39.517Z,11.30
2019-06-15T09:35:46.343Z,11.28
2019-06-15T09:36:52.104Z,11.03
2019-06-15T09:37:59.510Z,12.47
2019-06-15T09:39:06.697Z,10.88
2019-06-15T09:40:15.440Z,9.95
2019-06-15T09:41:20.916Z,10.08
2019-06-15T09:42:26.912Z,10.35
2019-06-15T09:43:32.482Z,10.23
2019-06-15T09:44:38.951Z,10.80
2019-06-15T09:45:44.438Z,9.65
2019-06-15T09:46:50.840Z,10.28
2019-06-15T09:47:56.199Z,9.05
2019-06-15T09:49:02.255Z,9.18
2019-06-15T09:50:07.630Z,8.65
2019-06-15T09:51:13.835Z,8.68
2019-06-15T09:52:21.492Z,9.03
2019-06-15T09:53:26.645Z,8.93
2019-06-15T09:54:31.173Z,7.87
2019-06-15T09:55:36.222Z,7.80
2019-06-15T09:56:40.763Z,8.60
2019-06-15T09:57:45.835Z,8.00
2019-06-15T09:58:50.399Z,8.80
2019-06-15T09:59:57.013Z,8.70
2019-06-15T10:01:01.522Z,8.43
2019-06-15T10:02:07.026Z,9.65
2019-06-15T10:03:12.163Z,7.75
2019-06-15T10:04:20.279Z,8.13
2019-06-15T10:05:24.903Z,7.50
2019-06-15T10:06:31.394Z,5.95
2019-06-15T10:07:35.853Z,7.58
2019-06-15T10:08:41.476Z,6.70
2019-06-15T10:09:46.063Z,7.42
2019-06-15T10:10:51.287Z,7.40
2019-06-15T10:11:55.772Z,7.08
2019-06-15T10:13:01.083Z,7.37
2019-06-15T10:14:05.830Z,8.53
2019-06-15T10:15:14.994Z,7.58
2019-06-15T10:16:19.605Z,8.15
2019-06-15T10:17:24.773Z,7.60
2019-06-15T10:18:29.418Z,7.45
2019-06-15T10:19:34.770Z,7.58
2019-06-15T10:20:39.459Z,7.78
2019-06-15T10:21:44.780Z,7.97
2019-06-15T10:22:49.859Z,8.23
2019-06-15T10:23:55.236Z,8.63
2019-06-15T10:24:59.727Z,7.80
2019-06-15T10:26:05.119Z,8.33
2019-06-15T10:27:10.982Z,7.12
2019-06-15T10:28:16.351Z,7.30
2019-06-15T10:29:20.969Z,7.78
2019-06-15T10:30:26.054Z,6.95
2019-06-15T10:31:30.680Z,7.45
2019-06-15T10:32:35.822Z,7.30
2019-06-15T10:33:40.544Z,7.17
2019-06-15T10:34:45.836Z,7.15
2019-06-15T10:35:50.522Z,6.40
2019-06-15T10:36:55.938Z,6.75
2019-06-15T10:38:00.706Z,7.47
2019-06-15T10:39:07.266Z,6.35
2019-06-15T10:40:15.148Z,6.08
2019-06-15T10:41:22.597Z,5.78
2019-06-15T10:42:27.286Z,6.28
2019-06-15T10:43:32.516Z,6.08
2019-06-15T10:44:37.427Z,5.92
2019-06-15T10:45:42.689Z,5.25
2019-06-15T10:46:47.326Z,6.08
2019-06-15T10:47:52.445Z,4.95
2019-06-15T10:48:57.031Z,5.90
2019-06-15T10:50:02.141Z,5.70
2019-06-15T10:51:06.805Z,6.20
2019-06-15T10:52:12.577Z,6.55
2019-06-15T10:53:17.271Z,6.83
2019-06-15T10:54:22.615Z,6.70
2019-06-15T10:55:27.145Z,8.13
2019-06-15T10:56:32.484Z,6.65
2019-06-15T10:57:37.134Z,7.42
2019-06-15T10:58:43.424Z,6.70
2019-06-15T10:59:56.907Z,8.35
2019-06-15T11:00:54.988Z,6.47
2019-06-15T11:01:59.778Z,8.63
2019-06-15T11:03:06.458Z,8.93
2019-06-15T11:04:14.301Z,11.20
2019-06-15T11:05:21.936Z,8.65
2019-06-15T11:06:26.767Z,8.65
2019-06-15T11:07:32.384Z,11.30
2019-06-15T11:08:37.345Z,11.18
2019-06-15T11:09:42.364Z,11.93
2019-06-15T11:10:54.235Z,10.20
2019-06-15T11:11:59.258Z,9.90
2019-06-15T11:13:03.842Z,10.58
2019-06-15T11:14:11.163Z,11.45
2019-06-15T11:15:16.485Z,11.80
2019-06-15T11:16:40.538Z,11.28
2019-06-15T11:17:44.999Z,9.00
2019-06-15T11:18:50.146Z,10.95
2019-06-15T11:19:54.774Z,9.38
2019-06-15T11:21:00.575Z,11.03
2019-06-15T11:22:05.048Z,11.08
2019-06-15T11:23:10.400Z,10.32
2019-06-15T11:24:15.137Z,9.10
2019-06-15T11:25:20.273Z,11.48
2019-06-15T11:26:24.794Z,10.38
2019-06-15T11:27:29.963Z,10.05
2019-06-15T11:28:34.418Z,10.53
2019-06-15T11:29:39.524Z,10.75
2019-06-15T11:30:44.015Z,10.38
2019-06-15T11:31:50.088Z,10.80
2019-06-15T11:32:54.555Z,9.85
2019-06-15T11:33:59.679Z,9.08
2019-06-15T11:35:04.776Z,9.55
2019-06-15T11:36:10.070Z,8.00
2019-06-15T11:37:14.948Z,8.90
2019-06-15T11:38:21.261Z,9.23
2019-06-15T11:39:25.754Z,8.33
2019-06-15T11:40:30.831Z,8.85
2019-06-15T11:41:36.772Z,7.97
2019-06-15T11:42:41.911Z,8.05
2019-06-15T11:43:46.415Z,8.80
2019-06-15T11:44:53.601Z,8.85
2019-06-15T11:46:10.618Z,8.13
2019-06-15T11:47:16.080Z,8.20
2019-06-15T11:48:20.721Z,8.28
2019-06-15T11:49:25.858Z,8.25
2019-06-15T11:50:30.454Z,8.73
2019-06-15T11:51:35.610Z,7.78
2019-06-15T11:52:40.349Z,8.28
2019-06-15T11:53:45.444Z,8.20
2019-06-15T11:54:49.896Z,7.85
2019-06-15T11:55:54.927Z,7.65
2019-06-15T11:56:59.374Z,8.90
2019-06-15T11:58:04.517Z,8.75
2019-06-15T11:59:08.940Z,9.83
2019-06-15T12:00:30.322Z,9.70
2019-06-15T12:01:20.749Z,7.95
2019-06-15T12:02:25.899Z,8.98
2019-06-15T12:03:31.998Z,8.33
2019-06-15T12:04:37.069Z,8.33
2019-06-15T12:05:41.728Z,8.28
2019-06-15T12:06:50.522Z,8.45
2019-06-15T12:07:55.012Z,7.65
2019-06-15T12:09:00.098Z,6.95
2019-06-15T12:10:04.638Z,6.87
2019-06-15T12:11:09.804Z,6.22
2019-06-15T12:12:14.620Z,6.08
2019-06-15T12:13:19.593Z,6.28
2019-06-15T12:14:24.086Z,5.53
2019-06-15T12:15:29.342Z,4.90
2019-06-15T12:16:33.797Z,4.15
2019-06-15T12:17:38.911Z,3.98
2019-06-15T12:18:43.599Z,3.35
2019-06-15T12:19:49.686Z,3.98
2019-06-15T12:20:54.135Z,3.55
2019-06-15T12:21:59.233Z,3.08
2019-06-15T12:23:03.766Z,2.90
2019-06-15T12:24:09.028Z,2.72
2019-06-15T12:25:14.169Z,2.65
2019-06-15T12:26:19.274Z,2.67
2019-06-15T12:27:25.085Z,2.50
2019-06-15T12:28:30.306Z,2.35
2019-06-15T12:29:34.885Z,2.83
2019-06-15T12:30:47.256Z,2.55
2019-06-15T12:31:47.140Z,2.35
2019-06-15T12:32:52.400Z,2.58
2019-06-15T12:33:56.964Z,2.30
2019-06-15T12:35:02.148Z,2.72
2019-06-15T12:36:18.701Z,2.70
2019-06-15T12:37:13.943Z,2.27
2019-06-15T12:38:18.623Z,2.95
2019-06-15T12:39:24.406Z,2.65
2019-06-15T12:40:29.044Z,2.52
2019-06-15T12:41:53.193Z,2.90
2019-06-15T12:42:57.884Z,2.72
2019-06-15T12:44:03.186Z,2.20
2019-06-15T12:45:07.967Z,2.60
2019-06-15T12:46:13.684Z,2.17
2019-06-15T12:47:18.208Z,2.80
2019-06-15T12:48:23.446Z,2.37
2019-06-15T12:49:27.987Z,2.75
2019-06-15T12:50:33.086Z,3.17
2019-06-15T12:51:40.610Z,2.60
2019-06-15T12:52:44.311Z,2.65
2019-06-15T12:53:48.748Z,2.80
2019-06-15T12:54:53.843Z,2.52
2019-06-15T12:55:58.287Z,2.10
2019-06-15T12:57:03.381Z,3.17
2019-06-15T12:58:07.831Z,2.95
2019-06-15T12:59:13.559Z,3.00
2019-06-15T13:00:18.291Z,3.00
2019-06-15T13:01:23.306Z,2.60
2019-06-15T13:02:27.746Z,2.33
2019-06-15T13:03:33.033Z,2.85
2019-06-15T13:04:37.516Z,2.52
2019-06-15T13:05:42.758Z,2.70
2019-06-15T13:06:47.429Z,2.70
2019-06-15T13:07:52.462Z,2.30
2019-06-15T13:08:56.977Z,2.70
2019-06-15T13:10:02.396Z,2.90
2019-06-15T13:11:07.241Z,2.98
2019-06-15T13:12:12.783Z,3.30
2019-06-15T13:13:17.899Z,2.77
2019-06-15T13:14:23.325Z,2.58
2019-06-15T13:15:27.869Z,2.45
2019-06-15T13:16:39.325Z,2.45
2019-06-15T13:17:41.560Z,2.50
2019-06-15T13:18:46.769Z,2.70
2019-06-15T13:19:51.535Z,2.02
2019-06-15T13:20:56.681Z,2.50
2019-06-15T13:22:01.324Z,2.30
2019-06-15T13:23:06.400Z,2.40
2019-06-15T13:24:11.134Z,1.85
2019-06-15T13:25:16.879Z,1.82
2019-06-15T13:26:21.551Z,1.70
2019-06-15T13:27:26.632Z,2.27
2019-06-15T13:28:32.233Z,1.98
2019-06-15T13:29:37.593Z,1.82
2019-06-15T13:30:42.428Z,1.40
2019-06-15T13:31:47.829Z,1.50
2019-06-15T13:32:59.606Z,1.70
2019-06-15T13:34:04.692Z,2.08
2019-06-15T13:35:09.879Z,1.85
2019-06-15T13:36:15.412Z,1.70
2019-06-15T13:37:21.270Z,1.85
2019-06-15T13:38:26.281Z,3.58
2019-06-15T13:39:31.029Z,4.78
2019-06-15T13:40:36.246Z,3.42
2019-06-15T13:41:40.835Z,3.30
2019-06-15T13:42:46.174Z,1.70
2019-06-15T13:43:51.906Z,2.00
2019-06-15T13:44:57.077Z,2.15
2019-06-15T13:46:01.823Z,3.90
2019-06-15T13:47:07.001Z,2.92
2019-06-15T13:48:11.970Z,3.02
2019-06-15T13:49:18.961Z,3.05
2019-06-15T13:50:23.674Z,3.00
2019-06-15T13:51:28.756Z,2.10
2019-06-15T13:52:33.294Z,1.80
2019-06-15T13:53:38.381Z,1.75
2019-06-15T13:54:42.828Z,1.45
2019-06-15T13:55:47.918Z,1.90
2019-06-15T13:56:52.515Z,1.75
2019-06-15T13:57:59.287Z,1.72
2019-06-15T13:59:04.138Z,1.82
2019-06-15T14:00:09.951Z,1.77
2019-06-15T14:01:15.169Z,1.75
2019-06-15T14:02:20.396Z,1.80
2019-06-15T14:03:25.980Z,1.60
2019-06-15T14:04:31.012Z,1.80
2019-06-15T14:05:35.467Z,1.60
2019-06-15T14:06:40.559Z,1.37
2019-06-15T14:07:46.265Z,1.80
2019-06-15T14:08:52.581Z,2.12
2019-06-15T14:09:57.197Z,1.75
2019-06-15T14:11:02.230Z,1.60
2019-06-15T14:12:06.729Z,1.55
2019-06-15T14:13:11.957Z,1.32
2019-06-15T14:14:17.717Z,1.50
2019-06-15T14:15:22.848Z,1.98
2019-06-15T14:16:27.303Z,2.00
2019-06-15T14:17:33.387Z,1.70
2019-06-15T14:18:37.965Z,2.05
2019-06-15T14:19:43.110Z,2.27
2019-06-15T14:20:48.708Z,2.00